Time;durP1;ratioP1;P1;durP2;ratioP2;P2;SDS_P1;SDS_P2;PMS_P1;PMS_P2;Temp;Humidity;BMP_temperature;BMP_pressure;BME280_temperature;BME280_humidity;BME280_pressure;Samples;Min_cycle;Max_cycle;Signal;HPM_P1;HPM_P2
2022/06/08 00:01:47;;;;;;;14.43;7.67;;;;;;;23.33;75.81;100649.14;1727737;82;21028;-71
2022/06/08 00:04:15;;;;;;;11.40;7.03;;;;;;;23.68;74.25;100646.71;1709541;82;21070;-71
2022/06/08 00:06:42;;;;;;;17.07;7.85;;;;;;;23.26;75.33;100649.41;1732255;82;21023;-71
2022/06/08 00:09:09;;;;;;;16.62;7.33;;;;;;;23.25;75.74;100649.05;1737174;82;21062;-71
2022/06/08 00:11:36;;;;;;;14.13;7.72;;;;;;;23.19;75.54;100648.33;1741341;82;21031;-71
2022/06/08 00:14:03;;;;;;;17.62;8.18;;;;;;;23.20;75.55;100650.00;1730977;82;21071;-71
2022/06/08 00:16:31;;;;;;;15.68;7.90;;;;;;;23.27;75.21;100647.60;1733730;82;21117;-71
2022/06/08 00:18:58;;;;;;;13.95;7.03;;;;;;;23.13;75.62;100651.53;1723916;82;21145;-71
2022/06/08 00:21:25;;;;;;;10.48;7.08;;;;;;;23.16;75.46;100653.39;1739812;82;21488;-71
2022/06/08 00:23:52;;;;;;;12.13;6.83;;;;;;;22.94;76.51;100644.06;1741133;82;21527;-71
2022/06/08 00:26:19;;;;;;;12.13;6.33;;;;;;;22.92;76.47;100645.19;1741179;82;21087;-71
2022/06/08 00:28:47;;;;;;;10.45;6.33;;;;;;;22.87;76.04;100649.56;1738180;82;21088;-71
2022/06/08 00:31:14;;;;;;;15.15;7.30;;;;;;;22.88;76.21;100643.82;1733514;82;21559;-72
2022/06/08 00:33:42;;;;;;;13.88;7.20;;;;;;;22.93;76.29;100648.98;1735962;82;21096;-71
2022/06/08 00:36:09;;;;;;;11.08;7.10;;;;;;;22.90;76.01;100647.13;1726226;82;21098;-72
2022/06/08 00:38:36;;;;;;;14.28;7.85;;;;;;;22.90;76.07;100647.13;1721598;82;21500;-71
2022/06/08 00:41:24;;;;;;;13.95;6.50;;;;;;;22.98;76.27;100649.86;1716546;82;21035;-71
2022/06/08 00:43:52;;;;;;;12.05;7.60;;;;;;;22.89;76.02;100645.00;1735242;82;21504;-72
2022/06/08 00:46:19;;;;;;;10.93;7.25;;;;;;;22.83;76.31;100646.89;1732809;82;21029;-71
2022/06/08 00:48:52;;;;;;;14.35;7.65;;;;;;;22.79;77.08;100641.09;1735392;82;21062;-72
2022/06/08 00:51:19;;;;;;;11.33;6.53;;;;;;;22.91;76.86;100646.99;1727276;82;21040;-72
2022/06/08 00:53:57;;;;;;;13.28;7.22;;;;;;;22.89;77.06;100649.39;1728703;82;21035;-71
2022/06/08 00:56:30;;;;;;;16.87;8.30;;;;;;;22.77;77.47;100644.34;1732469;82;21177;-71
2022/06/08 00:58:58;;;;;;;18.12;8.15;;;;;;;22.54;79.11;100643.84;1727338;82;21074;-71
2022/06/08 01:01:26;;;;;;;15.83;8.48;;;;;;;22.57;79.05;100638.33;1727725;82;21073;-71
2022/06/08 01:04:15;;;;;;;12.18;7.40;;;;;;;22.51;79.05;100638.08;1700898;82;21028;-71
2022/06/08 01:06:53;;;;;;;14.85;7.35;;;;;;;22.65;78.39;100632.84;1737547;82;21048;-71
2022/06/08 01:09:25;;;;;;;12.65;7.45;;;;;;;22.66;77.79;100637.13;1741859;82;21090;-71
2022/06/08 01:11:57;;;;;;;14.15;7.15;;;;;;;22.64;77.98;100635.95;1731539;82;21040;-71
2022/06/08 01:14:25;;;;;;;9.90;6.95;;;;;;;22.75;77.90;100631.00;1734329;82;21156;-71
2022/06/08 01:16:58;;;;;;;17.98;7.50;;;;;;;22.64;78.26;100632.02;1725416;82;21141;-71
2022/06/08 01:19:26;;;;;;;16.10;8.40;;;;;;;22.66;78.40;100633.19;1729007;82;21053;-71
2022/06/08 01:21:57;;;;;;;11.93;7.30;;;;;;;22.51;79.25;100628.89;1720893;82;21094;-71
2022/06/08 01:24:32;;;;;;;13.88;7.83;;;;;;;22.46;80.18;100627.17;1725615;82;21046;-71
2022/06/08 01:27:13;;;;;;;14.80;7.97;;;;;;;22.37;80.36;100636.23;1735116;82;21036;-72
2022/06/08 01:30:14;;;;;;;13.80;8.50;;;;;;;22.39;80.55;100641.34;1698975;82;21008;-71
2022/06/08 01:33:05;;;;;;;14.78;7.87;;;;;;;22.37;79.97;100633.61;1734709;82;21036;-71
2022/06/08 01:36:03;;;;;;;13.85;8.43;;;;;;;22.28;80.79;100636.24;1732008;82;21078;-71
2022/06/08 01:38:54;;;;;;;14.30;7.85;;;;;;;22.37;79.88;100634.92;1737419;82;21511;-71
2022/06/08 01:41:44;;;;;;;17.07;8.23;;;;;;;22.54;79.37;100637.78;1726026;82;21054;-71
2022/06/08 01:45:28;;;;;;;16.95;8.43;;;;;;;22.42;79.19;100625.80;1723305;82;21004;-72
2022/06/08 01:47:19;;;;;;;11.30;7.10;;;;;;;22.43;78.53;100632.22;1735616;82;21036;-71
2022/06/08 01:50:02;;;;;;;12.10;7.40;;;;;;;22.52;77.90;100634.47;1720491;82;21102;-71
2022/06/08 01:52:54;;;;;;;13.95;7.05;;;;;;;22.63;76.73;100633.00;1737698;82;21026;-71
2022/06/08 01:55:39;;;;;;;11.40;6.78;;;;;;;22.57;76.82;100629.14;1721934;82;21622;-71
2022/06/08 01:58:32;;;;;;;11.80;7.05;;;;;;;22.49;77.32;100636.08;1728169;82;21066;-71
2022/06/08 02:01:04;;;;;;;9.68;7.00;;;;;;;22.53;76.45;100630.89;1724759;82;21127;-71
2022/06/08 02:03:41;;;;;;;11.57;7.62;;;;;;;22.57;75.69;100634.88;1729775;82;21034;-71
2022/06/08 02:06:23;;;;;;;13.50;7.25;;;;;;;22.75;74.86;100631.85;1731153;82;21067;-72
2022/06/08 02:09:11;;;;;;;10.63;7.12;;;;;;;22.57;75.30;100632.27;1728172;82;21526;-71
2022/06/08 02:11:51;;;;;;;12.37;7.58;;;;;;;22.75;74.89;100629.69;1720250;82;21541;-71
2022/06/08 02:14:30;;;;;;;11.53;7.12;;;;;;;22.60;75.56;100630.16;1731412;82;21556;-71
2022/06/08 02:17:09;;;;;;;11.25;6.85;;;;;;;22.67;75.31;100634.37;1738982;82;21607;-71
2022/06/08 02:19:50;;;;;;;12.07;6.75;;;;;;;22.54;75.13;100632.03;1734494;82;21129;-72
2022/06/08 02:22:40;;;;;;;12.65;6.70;;;;;;;22.37;76.55;100632.78;1738043;82;21071;-71
2022/06/08 02:25:14;;;;;;;13.70;7.50;;;;;;;22.33;77.21;100632.73;1741164;82;21072;-71
2022/06/08 02:28:04;;;;;;;15.65;7.47;;;;;;;22.44;76.30;100635.66;1677021;83;21060;-71
2022/06/08 02:30:40;;;;;;;12.88;7.45;;;;;;;22.48;75.91;100635.23;1652249;85;21086;-71
2022/06/08 02:36:15;;;;;;;17.75;8.25;;;;;;;22.66;75.44;100637.13;1661942;85;21101;-71
2022/06/08 02:38:54;;;;;;;14.50;8.23;;;;;;;22.64;75.58;100643.82;1664390;85;21038;-71
2022/06/08 02:41:24;;;;;;;12.07;7.42;;;;;;;22.84;74.94;100640.66;1653772;85;21065;-71
2022/06/08 02:44:02;;;;;;;13.08;7.97;;;;;;;23.03;74.26;100643.70;1652676;85;21085;-71
2022/06/08 02:47:09;;;;;;;13.28;7.97;;;;;;;23.00;74.07;100646.11;1660489;85;21176;-71
2022/06/08 02:49:39;;;;;;;11.75;7.75;;;;;;;23.09;73.72;100648.37;1720895;82;21103;-71
2022/06/08 02:52:22;;;;;;;12.30;7.25;;;;;;;23.38;72.75;100647.41;1730413;82;20997;-71
2022/06/08 02:54:52;;;;;;;11.60;7.75;;;;;;;23.49;72.13;100650.31;1728705;82;21079;-71
2022/06/08 02:57:42;;;;;;;11.48;7.53;;;;;;;23.36;72.78;100649.36;1692825;82;21125;-71
2022/06/08 03:00:18;;;;;;;13.00;7.70;;;;;;;23.33;74.15;100654.89;1729328;82;21019;-71
2022/06/08 03:02:58;;;;;;;12.30;7.95;;;;;;;23.52;73.82;100654.78;1706677;82;21039;-71
2022/06/08 03:05:37;;;;;;;12.95;7.53;;;;;;;23.60;73.34;100659.27;1732145;82;21481;-71
2022/06/08 03:08:11;;;;;;;14.03;8.18;;;;;;;23.58;73.09;100660.77;1740738;82;21012;-71
2022/06/08 03:10:41;;;;;;;14.70;9.33;;;;;;;23.56;74.21;100659.23;1737459;82;21075;-71
2022/06/08 03:13:15;;;;;;;15.40;9.65;;;;;;;23.86;72.46;100655.45;1737127;82;21024;-71
2022/06/08 03:15:52;;;;;;;17.62;10.23;;;;;;;23.80;71.83;100660.00;1732285;82;21111;-71
2022/06/08 03:18:19;;;;;;;17.35;9.88;;;;;;;23.89;71.20;100662.23;1736954;82;21039;-71
2022/06/08 03:20:47;;;;;;;18.37;10.20;;;;;;;24.07;70.37;100656.48;1730518;82;21117;-71
2022/06/08 03:23:17;;;;;;;16.07;10.43;;;;;;;24.23;70.03;100657.09;1738684;82;21035;-71
2022/06/08 03:25:46;;;;;;;17.48;10.75;;;;;;;24.19;70.52;100656.56;1738240;82;21036;-71
2022/06/08 03:28:15;;;;;;;15.20;10.48;;;;;;;24.33;69.65;100658.30;1719428;82;20984;-70
2022/06/08 03:30:44;;;;;;;19.70;10.88;;;;;;;24.52;69.56;100659.95;1727431;82;21082;-71
2022/06/08 03:33:12;;;;;;;21.33;11.08;;;;;;;24.75;68.38;100660.24;1730131;82;21095;-70
2022/06/08 03:35:41;;;;;;;18.80;10.85;;;;;;;24.77;68.34;100663.05;1728555;82;21169;-71
2022/06/08 03:38:08;;;;;;;21.52;10.78;;;;;;;24.88;68.26;100659.33;1732926;82;21071;-70
2022/06/08 03:40:36;;;;;;;17.50;10.23;;;;;;;24.99;68.54;100666.12;1734705;82;21532;-71
2022/06/08 03:43:04;;;;;;;17.12;9.83;;;;;;;25.29;68.29;100666.61;1728424;82;21029;-71
2022/06/08 03:45:46;;;;;;;16.85;10.08;;;;;;;25.28;68.54;100663.13;1722038;82;21012;-71
2022/06/08 03:48:14;;;;;;;17.48;10.20;;;;;;;25.45;69.22;100661.38;1730023;82;21008;-70
2022/06/08 03:50:43;;;;;;;15.75;9.65;;;;;;;25.73;68.52;100661.94;1738066;82;20983;-70
2022/06/08 03:53:15;;;;;;;16.17;9.75;;;;;;;25.63;69.85;100663.90;1741412;82;21162;-71
2022/06/08 03:55:43;;;;;;;16.82;10.63;;;;;;;25.89;69.13;100666.41;1727969;82;21521;-71
2022/06/08 03:58:10;;;;;;;17.42;9.78;;;;;;;26.13;68.56;100666.09;1722601;82;21040;-71
2022/06/08 04:00:41;;;;;;;20.27;10.88;;;;;;;26.19;68.20;100674.66;1729028;82;21042;-71
2022/06/08 04:03:12;;;;;;;15.48;10.38;;;;;;;26.43;67.89;100673.82;1727863;82;21557;-71
2022/06/08 04:05:40;;;;;;;18.65;10.60;;;;;;;26.46;67.94;100677.46;1718864;82;21042;-71
2022/06/08 04:08:09;;;;;;;18.50;11.00;;;;;;;26.57;66.92;100677.59;1731328;82;21048;-71
2022/06/08 04:10:39;;;;;;;15.75;10.35;;;;;;;26.70;66.23;100674.45;1737448;82;21012;-71
2022/06/08 04:13:06;;;;;;;16.75;10.88;;;;;;;26.90;65.42;100670.94;1738492;82;21043;-71
2022/06/08 04:15:42;;;;;;;17.35;11.00;;;;;;;26.98;65.08;100666.44;1729686;82;21653;-71
2022/06/08 04:18:19;;;;;;;21.20;12.13;;;;;;;27.24;65.08;100677.27;1722491;82;21156;-71
2022/06/08 04:20:51;;;;;;;18.62;10.82;;;;;;;27.33;65.30;100676.72;1740057;82;21031;-71
2022/06/08 04:23:22;;;;;;;17.30;11.12;;;;;;;27.48;65.33;100682.11;1731438;81;21086;-72
2022/06/08 04:25:51;;;;;;;17.12;11.57;;;;;;;27.67;65.11;100675.53;1724322;82;22666;-71
2022/06/08 04:28:19;;;;;;;19.95;11.10;;;;;;;27.86;64.74;100680.38;1703967;82;21090;-71
2022/06/08 04:30:49;;;;;;;16.97;11.35;;;;;;;28.22;64.05;100683.73;1729800;82;21083;-71
2022/06/08 04:36:59;;;;;;;17.92;10.32;;;;;;;28.62;63.19;100683.05;1728104;82;21106;-71
2022/06/08 04:39:28;;;;;;;18.75;10.30;;;;;;;28.54;63.93;100687.92;1740007;82;21487;-70
2022/06/08 04:41:58;;;;;;;19.87;11.08;;;;;;;28.73;63.74;100688.39;1736797;82;21046;-69
2022/06/08 04:44:27;;;;;;;17.02;10.70;;;;;;;28.99;63.24;100683.14;1729759;82;21519;-70
2022/06/08 04:46:54;;;;;;;18.17;10.82;;;;;;;29.25;62.44;100684.82;1718742;82;21555;-71
2022/06/08 04:49:24;;;;;;;19.23;11.85;;;;;;;28.72;63.95;100684.93;1727162;82;21039;-71
2022/06/08 04:51:52;;;;;;;17.95;10.85;;;;;;;28.90;63.96;100688.54;1728350;82;21031;-72
2022/06/08 04:54:19;;;;;;;20.08;11.50;;;;;;;28.93;64.66;100688.67;1729782;82;21548;-71
2022/06/08 04:56:47;;;;;;;18.05;10.23;;;;;;;28.90;64.84;100689.05;1732670;82;21523;-71
2022/06/08 04:59:15;;;;;;;16.37;10.50;;;;;;;28.89;65.06;100690.89;1732484;82;21129;-71
2022/06/08 05:01:43;;;;;;;17.50;10.63;;;;;;;29.16;64.47;100689.42;1734790;82;21027;-71
2022/06/08 05:04:13;;;;;;;18.40;10.93;;;;;;;29.22;64.82;100691.84;1733201;82;21044;-71
2022/06/08 05:06:42;;;;;;;14.55;9.83;;;;;;;29.30;64.47;100685.58;1739490;82;21030;-71
2022/06/08 05:09:10;;;;;;;21.00;11.25;;;;;;;29.40;64.05;100691.44;1726754;82;21545;-71
2022/06/08 05:11:39;;;;;;;15.98;10.35;;;;;;;29.72;63.21;100686.17;1718433;82;21078;-71
2022/06/08 05:14:08;;;;;;;21.60;10.60;;;;;;;29.93;62.67;100692.52;1722716;82;21031;-71
2022/06/08 05:16:36;;;;;;;18.82;11.90;;;;;;;30.08;61.97;100689.77;1725068;82;21075;-71
2022/06/08 05:19:03;;;;;;;15.85;11.55;;;;;;;30.26;61.89;100693.30;1740588;82;21443;-70
2022/06/08 05:21:32;;;;;;;24.67;12.65;;;;;;;30.39;61.74;100685.95;1729900;82;21055;-71
2022/06/08 05:23:59;;;;;;;22.58;11.25;;;;;;;30.33;62.06;100692.84;1730005;82;22050;-71
2022/06/08 05:26:31;;;;;;;22.00;13.28;;;;;;;30.53;61.03;100691.15;1729763;82;21040;-71
2022/06/08 05:29:00;;;;;;;25.70;15.38;;;;;;;30.71;60.20;100697.29;1741228;82;21051;-71
2022/06/08 05:31:27;;;;;;;24.02;15.83;;;;;;;30.88;59.44;100691.69;1707756;82;21067;-72
2022/06/08 05:33:57;;;;;;;25.48;14.83;;;;;;;30.87;57.93;100693.50;1730992;82;21519;-72
2022/06/08 05:36:24;;;;;;;23.55;15.20;;;;;;;31.17;57.51;100696.44;1727566;82;21150;-70
2022/06/08 05:38:53;;;;;;;28.30;15.58;;;;;;;31.33;57.47;100692.09;1727109;82;21082;-70
2022/06/08 05:41:23;;;;;;;25.37;15.32;;;;;;;31.63;56.83;100699.75;1726722;82;21023;-71
2022/06/08 05:43:52;;;;;;;29.82;17.55;;;;;;;31.99;56.13;100691.92;1730305;82;21082;-71
2022/06/08 05:46:20;;;;;;;23.70;14.10;;;;;;;31.71;54.17;100694.23;1725879;82;21499;-71
2022/06/08 05:48:49;;;;;;;22.52;15.13;;;;;;;31.76;54.31;100686.48;1724402;82;21067;-72
2022/06/08 05:51:16;;;;;;;27.02;16.45;;;;;;;31.86;55.44;100694.08;1724988;82;21083;-72
2022/06/08 05:53:45;;;;;;;28.67;18.80;;;;;;;31.98;53.84;100684.45;1738655;82;21023;-70
2022/06/08 05:56:13;;;;;;;24.60;16.35;;;;;;;32.07;53.83;100682.42;1723895;82;21044;-73
2022/06/08 05:58:43;;;;;;;39.70;24.05;;;;;;;32.23;52.61;100677.20;1734536;82;21048;-71
2022/06/08 06:01:10;;;;;;;40.78;24.05;;;;;;;32.30;49.40;100680.17;1726315;82;21029;-71
2022/06/08 06:03:39;;;;;;;39.25;25.37;;;;;;;32.37;49.12;100683.34;1730565;82;21056;-70
2022/06/08 06:06:07;;;;;;;41.92;25.15;;;;;;;32.51;48.54;100683.09;1725411;82;21582;-70
2022/06/08 06:08:35;;;;;;;39.70;25.05;;;;;;;32.55;48.02;100683.53;1705936;83;21149;-71
2022/06/08 06:11:06;;;;;;;42.67;26.42;;;;;;;32.71;48.00;100675.61;1736903;82;21044;-71
2022/06/08 06:13:34;;;;;;;45.50;26.17;;;;;;;32.68;46.95;100684.81;1710823;82;21546;-71
2022/06/08 06:16:04;;;;;;;40.70;25.70;;;;;;;32.77;45.98;100680.59;1733139;82;21114;-71
2022/06/08 06:18:32;;;;;;;38.73;24.57;;;;;;;32.73;45.33;100677.55;1735007;82;22077;-71
2022/06/08 06:21:01;;;;;;;35.20;24.35;;;;;;;32.87;46.04;100674.33;1727063;82;21062;-71
2022/06/08 06:23:30;;;;;;;35.45;21.75;;;;;;;33.03;44.50;100688.52;1740268;82;21058;-72
2022/06/08 06:25:59;;;;;;;29.30;19.60;;;;;;;32.79;45.34;100681.20;1726750;82;21087;-71
2022/06/08 06:28:47;;;;;;;27.02;18.92;;;;;;;33.13;42.04;100672.91;1735976;82;22156;-71
2022/06/08 06:31:24;;;;;;;36.77;26.05;;;;;;;33.13;42.04;100672.91;1735819;82;21076;-72
2022/06/08 06:33:58;;;;;;;42.50;27.00;;;;;;;33.18;41.33;100661.59;1725917;82;21011;-71
2022/06/08 06:36:25;;;;;;;38.40;25.80;;;;;;;33.47;40.79;100670.85;1724013;82;21031;-71
2022/06/08 06:38:53;;;;;;;38.98;24.67;;;;;;;33.50;39.83;100670.44;1725080;82;21059;-71
2022/06/08 06:41:21;;;;;;;37.15;23.05;;;;;;;33.46;39.94;100663.89;1734179;82;21106;-71
2022/06/08 06:43:51;;;;;;;31.05;21.40;;;;;;;33.49;40.00;100673.31;1734812;82;21094;-71
2022/06/08 06:46:20;;;;;;;32.73;20.72;;;;;;;33.48;38.98;100671.17;1725218;82;21054;-71
2022/06/08 06:48:55;;;;;;;27.98;18.65;;;;;;;33.61;40.21;100674.28;1699102;82;21091;-71
2022/06/08 06:51:22;;;;;;;27.75;19.77;;;;;;;33.62;40.44;100665.76;1724377;82;21099;-71
2022/06/08 06:53:51;;;;;;;29.75;20.70;;;;;;;33.76;40.67;100669.16;1727992;82;21129;-72
2022/06/08 06:56:19;;;;;;;31.12;23.10;;;;;;;33.46;39.23;100673.23;1728850;82;20987;-71
2022/06/08 06:58:54;;;;;;;34.33;21.97;;;;;;;33.70;38.57;100672.20;1727804;82;21037;-72
2022/06/08 07:01:24;;;;;;;40.70;25.25;;;;;;;34.14;38.25;100673.08;1734741;82;21083;-71
2022/06/08 07:03:52;;;;;;;40.45;26.10;;;;;;;34.15;38.10;100669.38;1724658;82;21038;-70
2022/06/08 07:06:20;;;;;;;36.25;23.57;;;;;;;33.81;37.68;100670.67;1719073;82;20995;-70
2022/06/08 07:08:47;;;;;;;33.20;21.65;;;;;;;33.98;38.04;100666.92;1730158;82;21071;-71
2022/06/08 07:14:07;;;;;;;44.45;30.12;;;;;;;34.05;39.02;100667.70;1726081;82;21475;-72
2022/06/08 07:16:36;;;;;;;44.13;28.70;;;;;;;33.87;37.79;100663.13;1726980;82;21129;-71
2022/06/08 07:19:05;;;;;;;43.68;28.32;;;;;;;34.21;38.02;100661.83;1721500;82;21530;-72
2022/06/08 07:21:33;;;;;;;41.68;27.90;;;;;;;34.14;37.92;100666.40;1733185;82;21071;-72
2022/06/08 07:24:00;;;;;;;41.50;27.87;;;;;;;34.38;37.89;100654.04;1724551;82;21024;-71
2022/06/08 07:26:28;;;;;;;36.68;21.93;;;;;;;34.77;38.16;100661.34;1734890;82;21059;-72
2022/06/08 07:28:56;;;;;;;27.62;20.10;;;;;;;34.27;38.62;100660.94;1734491;82;21014;-72
2022/06/08 07:31:25;;;;;;;28.05;19.67;;;;;;;34.45;37.98;100656.63;1721059;82;21113;-71
2022/06/08 07:33:54;;;;;;;23.40;16.20;;;;;;;34.73;37.85;100660.68;1722573;82;21089;-71
2022/06/08 07:36:21;;;;;;;22.70;13.30;;;;;;;34.85;38.15;100653.01;1735666;82;21007;-71
2022/06/08 07:38:49;;;;;;;17.57;11.28;;;;;;;35.05;37.98;100648.74;1733925;82;21133;-71
2022/06/08 07:41:17;;;;;;;21.62;11.18;;;;;;;34.58;37.30;100651.69;1743329;80;21051;-71
2022/06/08 07:43:46;;;;;;;17.57;10.45;;;;;;;34.81;37.67;100651.02;1754747;81;21000;-71
2022/06/08 07:46:14;;;;;;;14.85;9.80;;;;;;;34.86;37.88;100647.16;1752356;81;21030;-71
2022/06/08 07:51:26;;;;;;;17.60;9.95;;;;;;;34.81;36.18;100655.84;1746686;81;21015;-71
2022/06/08 07:53:53;;;;;;;15.08;9.15;;;;;;;34.77;36.74;100642.62;1751046;81;20968;-70
2022/06/08 07:56:21;;;;;;;12.65;9.10;;;;;;;34.89;36.15;100644.83;1749387;81;21071;-73
2022/06/08 07:58:48;;;;;;;14.23;9.13;;;;;;;34.82;37.08;100646.79;1750924;81;21059;-72
2022/06/08 08:01:16;;;;;;;17.55;8.63;;;;;;;34.84;35.37;100642.03;1749928;80;21041;-72
2022/06/08 08:03:43;;;;;;;11.68;7.90;;;;;;;34.67;36.34;100645.00;1754626;81;21062;-72
2022/06/08 08:06:10;;;;;;;13.78;8.45;;;;;;;34.98;35.25;100640.50;1752979;81;21027;-71
2022/06/08 08:08:38;;;;;;;14.53;8.65;;;;;;;35.28;36.77;100639.20;1747969;80;21043;-71
2022/06/08 08:11:07;;;;;;;16.32;9.98;;;;;;;35.07;35.14;100629.80;1752259;80;21005;-72
2022/06/08 08:13:36;;;;;;;12.10;8.83;;;;;;;35.45;36.75;100630.00;1752183;81;21071;-71
2022/06/08 08:16:05;;;;;;;14.85;8.35;;;;;;;35.63;35.89;100629.11;1752755;81;21146;-72
2022/06/08 08:18:32;;;;;;;14.35;9.18;;;;;;;35.72;35.95;100629.61;1752462;80;21470;-71
2022/06/08 08:21:00;;;;;;;12.43;8.08;;;;;;;35.49;36.75;100629.31;1750437;81;21116;-72
2022/06/08 08:23:27;;;;;;;12.73;8.60;;;;;;;35.45;35.15;100632.16;1752395;81;21047;-72
2022/06/08 08:25:54;;;;;;;10.98;8.28;;;;;;;35.45;35.50;100619.30;1748357;80;21144;-72
2022/06/08 08:28:21;;;;;;;14.38;8.45;;;;;;;35.61;35.01;100624.51;1753779;80;21094;-72
2022/06/08 08:30:49;;;;;;;12.43;8.58;;;;;;;35.63;35.50;100626.44;1752250;80;21543;-71
2022/06/08 08:33:17;;;;;;;13.03;8.75;;;;;;;35.80;35.44;100617.21;1752580;81;21468;-71
2022/06/08 08:35:45;;;;;;;12.43;9.03;;;;;;;35.52;36.00;100617.31;1751251;81;21128;-72
2022/06/08 08:38:13;;;;;;;15.40;9.35;;;;;;;35.49;35.81;100613.78;1750082;81;21024;-72
2022/06/08 08:40:50;;;;;;;15.68;9.48;;;;;;;35.46;36.91;100613.72;1751172;80;21696;-72
2022/06/08 08:43:22;;;;;;;13.70;9.33;;;;;;;35.45;36.84;100612.61;1750938;81;21491;-71
2022/06/08 08:45:55;;;;;;;16.73;9.87;;;;;;;35.25;36.56;100616.92;1752241;81;21522;-71
2022/06/08 08:48:32;;;;;;;16.35;9.53;;;;;;;35.20;36.89;100610.92;1751935;81;21271;-71
2022/06/08 08:51:10;;;;;;;13.75;9.63;;;;;;;35.60;36.39;100608.14;1753945;80;21074;-71
2022/06/08 08:53:58;;;;;;;14.93;9.45;;;;;;;35.98;36.18;100606.91;1751849;81;21036;-71
2022/06/08 08:56:31;;;;;;;14.50;9.10;;;;;;;35.29;36.86;100606.05;1749414;81;21535;-71
2022/06/08 08:59:00;;;;;;;15.20;8.70;;;;;;;35.44;35.31;100605.08;1749679;81;21078;-72
2022/06/08 09:01:35;;;;;;;12.55;8.93;;;;;;;35.69;35.96;100606.80;1753053;81;21079;-71
2022/06/08 09:04:30;;;;;;;15.25;9.15;;;;;;;35.53;34.55;100610.13;1751793;80;21035;-72
2022/06/08 09:06:57;;;;;;;14.23;9.00;;;;;;;35.79;35.46;100595.48;1749843;81;21058;-71
2022/06/08 09:09:31;;;;;;;13.40;8.30;;;;;;;35.58;35.39;100603.00;1753993;81;20994;-71
2022/06/08 09:11:59;;;;;;;14.95;8.75;;;;;;;35.67;34.28;100596.30;1751669;80;21004;-71
2022/06/08 09:14:51;;;;;;;15.08;8.35;;;;;;;35.72;34.18;100590.78;1750152;81;21031;-72
2022/06/08 09:17:32;;;;;;;17.17;8.15;;;;;;;35.66;33.75;100585.82;1749799;81;21524;-72
2022/06/08 09:20:03;;;;;;;15.23;8.15;;;;;;;36.07;33.82;100586.73;1749873;80;20995;-72
2022/06/08 09:22:32;;;;;;;12.95;8.05;;;;;;;35.87;33.60;100584.41;1749690;81;21059;-71
2022/06/08 09:25:07;;;;;;;16.40;8.03;;;;;;;35.86;35.79;100572.08;1752507;81;21021;-71
2022/06/08 09:27:38;;;;;;;14.55;7.75;;;;;;;35.13;33.29;100583.94;1749897;81;21031;-70
2022/06/08 09:30:24;;;;;;;16.62;7.87;;;;;;;35.72;34.05;100583.55;1752491;81;21032;-71
2022/06/08 09:32:57;;;;;;;11.15;8.00;;;;;;;35.93;34.34;100578.16;1749648;81;21047;-72
2022/06/08 09:35:35;;;;;;;9.40;7.15;;;;;;;36.04;33.50;100575.16;1752742;81;21039;-71
2022/06/08 09:38:09;;;;;;;12.03;6.97;;;;;;;36.07;34.13;100572.83;1749131;81;21015;-71
2022/06/08 09:40:56;;;;;;;10.18;6.75;;;;;;;36.20;33.90;100572.31;1750306;81;21032;-72
2022/06/08 09:43:50;;;;;;;14.10;7.97;;;;;;;35.99;32.96;100569.17;1750618;81;21819;-72
2022/06/08 09:53:06;;;;;;;10.08;7.53;;;;;;;36.48;33.82;100562.97;1749649;81;21055;-71
2022/06/08 09:55:50;;;;;;;11.03;7.28;;;;;;;36.27;32.34;100565.75;1748375;81;21066;-71
2022/06/08 09:58:31;;;;;;;13.72;7.78;;;;;;;35.81;34.00;100567.44;1752548;80;21023;-72
2022/06/08 10:01:26;;;;;;;12.58;7.58;;;;;;;35.34;33.65;100553.97;1751599;81;21505;-72
2022/06/08 10:04:10;;;;;;;13.20;7.30;;;;;;;35.72;33.76;100558.11;1751665;81;21630;-71
2022/06/08 10:06:49;;;;;;;11.27;7.43;;;;;;;35.79;33.53;100549.45;1751103;81;21114;-73
2022/06/08 10:10:13;;;;;;;11.08;7.17;;;;;;;35.86;33.45;100546.11;1749170;81;21054;-71
2022/06/08 10:12:57;;;;;;;11.85;7.42;;;;;;;36.39;34.49;100542.13;1744057;81;21054;-72
2022/06/08 10:15:45;;;;;;;10.18;7.00;;;;;;;36.68;32.61;100551.02;1750925;81;21106;-72
2022/06/08 10:18:26;;;;;;;11.25;7.45;;;;;;;36.30;32.52;100549.20;1747845;80;21134;-72
2022/06/08 10:21:17;;;;;;;13.88;7.12;;;;;;;36.28;32.77;100555.86;1750679;80;21392;-72
2022/06/08 10:24:23;;;;;;;12.60;7.70;;;;;;;36.74;33.54;100544.69;1746694;81;21063;-72
2022/06/08 10:26:57;;;;;;;12.68;7.00;;;;;;;36.57;32.52;100539.27;1747403;80;21055;-72
2022/06/08 10:30:01;;;;;;;10.82;7.45;;;;;;;36.63;32.32;100542.89;1752848;80;21042;-71
2022/06/08 10:32:33;;;;;;;11.85;6.50;;;;;;;36.69;33.29;100537.38;1752901;81;21071;-71
2022/06/08 10:35:16;;;;;;;11.55;7.05;;;;;;;36.48;31.91;100529.45;1754437;81;21036;-72
2022/06/08 10:37:43;;;;;;;11.50;7.20;;;;;;;36.38;32.88;100523.90;1751085;80;21032;-72
2022/06/08 10:40:16;;;;;;;15.83;7.17;;;;;;;36.67;32.74;100520.70;1750451;81;21055;-72
2022/06/08 10:42:46;;;;;;;13.58;7.25;;;;;;;36.78;32.06;100524.91;1747450;81;21580;-71
2022/06/08 10:45:39;;;;;;;11.70;7.70;;;;;;;36.92;31.33;100521.40;1746944;82;21024;-72
2022/06/08 10:48:23;;;;;;;12.25;7.20;;;;;;;36.85;31.34;100519.69;1753741;81;21032;-72
2022/06/08 10:51:13;;;;;;;10.75;7.20;;;;;;;36.53;32.00;100522.02;1756488;82;21044;-71
2022/06/08 10:56:40;;;;;;;11.38;6.70;;;;;;;36.88;33.11;100525.92;1750850;81;21770;-72
2022/06/08 10:59:15;;;;;;;10.18;6.42;;;;;;;37.05;31.16;100519.76;1751309;81;21031;-73
2022/06/08 11:02:05;;;;;;;11.27;6.67;;;;;;;37.19;32.19;100513.55;1748935;80;21594;-73
2022/06/08 11:04:39;;;;;;;11.88;6.30;;;;;;;36.64;31.97;100510.48;1749223;81;21005;-72
2022/06/08 11:07:14;;;;;;;11.48;6.67;;;;;;;36.94;31.23;100512.58;1747934;81;21044;-71
2022/06/08 11:09:55;;;;;;;12.55;6.58;;;;;;;36.63;31.24;100506.16;1751640;81;21142;-71
2022/06/08 11:12:40;;;;;;;7.87;6.45;;;;;;;36.82;31.85;100512.14;1747553;81;21084;-72
2022/06/08 11:15:25;;;;;;;8.30;5.92;;;;;;;36.89;30.82;100504.73;1752388;80;21032;-73
2022/06/08 11:17:58;;;;;;;9.83;5.90;;;;;;;37.29;30.59;100507.02;1750919;81;21016;-71
2022/06/08 11:20:41;;;;;;;9.38;6.72;;;;;;;37.41;32.00;100501.53;1750887;81;21023;-71
2022/06/08 11:23:23;;;;;;;10.63;6.33;;;;;;;37.24;31.92;100508.27;1748758;81;21091;-71
2022/06/08 11:26:05;;;;;;;9.33;6.10;;;;;;;37.09;31.05;100501.58;1747097;81;21031;-72
2022/06/08 11:28:43;;;;;;;11.50;6.42;;;;;;;37.03;30.16;100502.55;1751083;81;21067;-72
2022/06/08 11:31:27;;;;;;;9.93;6.20;;;;;;;37.27;30.82;100503.77;1753778;81;21056;-71
2022/06/08 11:34:20;;;;;;;7.78;5.28;;;;;;;37.35;29.96;100502.52;1749958;81;21109;-72
2022/06/08 11:37:13;;;;;;;;;;;;;;;37.79;29.31;100495.38;1757835;81;21067;-72
2022/06/08 11:40:15;;;;;;;9.85;5.80;;;;;;;38.18;30.66;100489.98;1752805;81;20096;-72
2022/06/08 11:42:53;;;;;;;11.60;6.33;;;;;;;37.84;29.93;100495.46;1748785;81;21190;-71
2022/06/08 11:45:35;;;;;;;11.22;6.42;;;;;;;37.40;29.87;100495.36;1742346;80;21038;-72
2022/06/08 11:48:13;;;;;;;6.92;5.75;;;;;;;37.78;29.92;100489.73;1743309;81;21086;-72
2022/06/08 11:50:52;;;;;;;9.73;6.08;;;;;;;38.02;29.52;100484.09;1752876;80;20991;-72
2022/06/08 11:53:36;;;;;;;7.85;6.00;;;;;;;37.94;30.10;100485.38;1751120;81;21606;-72
2022/06/08 11:56:29;;;;;;;11.65;6.10;;;;;;;38.25;31.74;100485.75;1754746;81;21082;-72
2022/06/08 11:59:00;;;;;;;6.85;5.97;;;;;;;37.82;29.81;100486.84;1748380;81;21091;-72
2022/06/08 12:01:46;;;;;;;15.18;6.40;;;;;;;37.98;30.28;100483.81;1753432;80;21019;-72
2022/06/08 12:04:26;;;;;;;9.28;5.50;;;;;;;37.42;30.66;100481.69;1725717;81;21012;-71
2022/06/08 12:06:56;;;;;;;11.45;6.45;;;;;;;37.98;29.70;100477.09;1752739;81;21554;-72
2022/06/08 12:09:34;;;;;;;11.70;6.30;;;;;;;38.03;29.52;100479.02;1751745;82;21536;-71